Time;durP1;ratioP1;P1;durP2;ratioP2;P2;SDS_P1;SDS_P2;PMS_P1;PMS_P2;Temp;Humidity;BMP_temperature;BMP_pressure;BME280_temperature;BME280_humidity;BME280_pressure;Samples;Min_cycle;Max_cycle;Signal;HPM_P1;HPM_P2
2022/03/15 00:01:19;;;;;;;27.23;11.25;;;2.90;81.30;;;;;;5112275;28;20824;-71
2022/03/15 00:03:46;;;;;;;21.00;9.90;;;2.90;81.60;;;;;;5094280;28;20036;-71
2022/03/15 00:06:12;;;;;;;22.60;11.35;;;2.90;81.70;;;;;;5105912;27;20051;-71
2022/03/15 00:08:38;;;;;;;33.78;13.98;;;2.90;81.50;;;;;;5058248;28;20047;-71
2022/03/15 00:11:05;;;;;;;24.27;11.40;;;3.00;81.40;;;;;;5093357;28;20057;-71
2022/03/15 00:13:36;;;;;;;26.73;12.45;;;3.00;81.30;;;;;;5124694;27;20051;-71
2022/03/15 00:16:03;;;;;;;28.33;12.45;;;3.00;81.40;;;;;;5124627;27;20157;-71
2022/03/15 00:18:30;;;;;;;29.70;13.00;;;3.10;81.60;;;;;;5109149;28;20039;-71
2022/03/15 00:21:01;;;;;;;27.42;13.20;;;3.20;82.00;;;;;;5109477;28;20586;-71
2022/03/15 00:23:27;;;;;;;31.08;11.95;;;3.20;81.60;;;;;;5082725;28;20645;-71
2022/03/15 00:25:53;;;;;;;22.87;10.50;;;3.20;81.70;;;;;;5092059;28;20043;-71
2022/03/15 00:28:22;;;;;;;27.13;11.23;;;3.20;82.00;;;;;;5074683;28;20480;-71
2022/03/15 00:30:49;;;;;;;25.15;11.23;;;3.20;81.90;;;;;;5092996;28;20040;-71
2022/03/15 00:33:15;;;;;;;29.17;11.30;;;3.20;81.90;;;;;;5075081;28;20107;-71
2022/03/15 00:35:40;;;;;;;28.98;10.90;;;3.20;81.70;;;;;;5126568;27;20047;-71
2022/03/15 00:38:06;;;;;;;22.97;10.43;;;3.20;81.50;;;;;;5074484;28;20099;-71
2022/03/15 00:40:32;;;;;;;34.53;10.20;;;3.20;81.80;;;;;;5125564;27;20420;-71
2022/03/15 00:42:58;;;;;;;26.47;9.73;;;3.20;81.70;;;;;;5089592;28;20778;-71
2022/03/15 00:45:24;;;;;;;23.17;9.70;;;3.20;82.10;;;;;;5089647;28;20046;-71
2022/03/15 00:47:54;;;;;;;22.00;10.38;;;3.20;82.10;;;;;;5081659;28;20063;-71
2022/03/15 00:50:23;;;;;;;29.33;10.90;;;3.20;82.20;;;;;;5081537;28;20085;-71
2022/03/15 00:52:50;;;;;;;24.05;10.18;;;3.20;82.10;;;;;;5125106;27;20408;-71
2022/03/15 00:55:16;;;;;;;25.25;10.55;;;3.20;82.10;;;;;;5108408;28;20047;-71
2022/03/15 00:57:42;;;;;;;24.75;11.10;;;3.10;82.00;;;;;;5092292;28;20075;-71
2022/03/15 01:00:09;;;;;;;25.97;10.93;;;3.20;82.00;;;;;;5092726;28;20032;-71
2022/03/15 01:02:35;;;;;;;20.60;9.98;;;3.10;82.10;;;;;;5092149;28;20457;-71
2022/03/15 01:05:01;;;;;;;24.77;10.77;;;3.10;82.00;;;;;;5075386;28;20055;-71
2022/03/15 01:07:27;;;;;;;20.73;10.53;;;3.10;82.00;;;;;;5088667;28;20070;-71
2022/03/15 01:09:53;;;;;;;25.67;10.10;;;3.00;82.00;;;;;;5076228;28;20109;-71
2022/03/15 01:12:18;;;;;;;25.30;11.07;;;3.00;82.00;;;;;;5095500;28;20054;-71
2022/03/15 01:14:44;;;;;;;23.40;10.87;;;3.10;82.10;;;;;;5093007;28;20654;-71
2022/03/15 01:17:10;;;;;;;27.17;12.13;;;3.20;82.10;;;;;;5109584;28;20032;-71
2022/03/15 01:19:36;;;;;;;28.73;11.60;;;3.30;82.30;;;;;;5092253;28;20080;-71
2022/03/15 01:22:02;;;;;;;23.97;11.53;;;3.40;82.40;;;;;;5073530;28;20066;-71
2022/03/15 01:24:28;;;;;;;25.63;11.70;;;3.50;82.30;;;;;;5104351;28;20040;-71
2022/03/15 01:26:54;;;;;;;21.70;11.60;;;3.60;82.40;;;;;;5077945;28;20036;-71
2022/03/15 01:29:25;;;;;;;21.30;11.70;;;3.70;82.70;;;;;;5091547;28;20040;-71
2022/03/15 01:31:51;;;;;;;24.52;11.18;;;3.80;82.50;;;;;;5089707;28;20073;-71
2022/03/15 01:34:16;;;;;;;20.60;11.33;;;3.90;82.70;;;;;;5095902;28;20085;-71
2022/03/15 01:36:42;;;;;;;24.53;11.33;;;3.90;82.40;;;;;;5074257;28;20435;-71
2022/03/15 01:39:08;;;;;;;25.70;11.68;;;4.00;82.40;;;;;;5108067;28;20062;-71
2022/03/15 01:41:38;;;;;;;24.70;11.77;;;4.10;82.70;;;;;;5071896;28;20487;-71
2022/03/15 01:44:12;;;;;;;26.15;11.38;;;4.10;82.50;;;;;;5088429;28;20130;-71
2022/03/15 01:46:38;;;;;;;23.70;11.55;;;4.20;82.40;;;;;;5087836;28;20032;-71
2022/03/15 01:49:04;;;;;;;22.53;11.07;;;4.30;82.50;;;;;;5087525;28;20040;-71
2022/03/15 01:51:30;;;;;;;19.53;10.13;;;4.30;82.40;;;;;;5088305;28;20428;-71
2022/03/15 01:53:55;;;;;;;19.37;11.07;;;4.40;82.40;;;;;;5104118;27;20419;-71
2022/03/15 01:56:21;;;;;;;23.10;10.43;;;4.40;82.50;;;;;;5069784;28;20404;-71
2022/03/15 01:58:47;;;;;;;21.73;10.80;;;4.50;82.40;;;;;;5071786;28;20055;-72
2022/03/15 02:01:13;;;;;;;23.50;10.53;;;4.50;82.30;;;;;;5087931;28;20072;-71
2022/03/15 02:03:38;;;;;;;21.23;10.87;;;4.60;82.30;;;;;;5104669;28;20633;-71
2022/03/15 02:06:05;;;;;;;24.07;11.40;;;4.60;82.40;;;;;;5072983;28;20072;-71
2022/03/15 02:08:33;;;;;;;21.90;11.05;;;4.60;82.30;;;;;;5082804;28;20570;-71
2022/03/15 02:10:58;;;;;;;20.80;10.35;;;4.60;82.20;;;;;;5074042;28;20039;-71
2022/03/15 02:13:24;;;;;;;24.63;10.77;;;4.70;82.20;;;;;;5066724;28;20564;-71
2022/03/15 02:15:50;;;;;;;23.33;10.80;;;4.70;82.10;;;;;;5090916;27;20050;-71
2022/03/15 02:18:18;;;;;;;23.10;10.70;;;4.70;82.10;;;;;;5096425;28;20463;-71
2022/03/15 02:20:44;;;;;;;24.20;10.40;;;4.70;82.10;;;;;;5054983;28;20578;-71
2022/03/15 02:23:12;;;;;;;21.77;10.30;;;4.80;82.00;;;;;;5089936;28;20082;-71
2022/03/15 02:25:38;;;;;;;24.27;11.48;;;4.80;81.90;;;;;;5098956;28;20527;-71
2022/03/15 02:28:04;;;;;;;23.00;10.77;;;4.80;82.10;;;;;;5093498;28;20081;-71
2022/03/15 02:30:30;;;;;;;18.30;10.05;;;4.80;81.80;;;;;;5072470;28;20527;-71
2022/03/15 02:32:57;;;;;;;23.65;10.18;;;4.90;81.80;;;;;;5100480;27;20461;-72
2022/03/15 02:35:22;;;;;;;24.88;11.02;;;4.90;81.70;;;;;;5094019;28;20093;-72
2022/03/15 02:37:48;;;;;;;20.30;11.07;;;4.90;81.90;;;;;;5069503;28;20100;-72
2022/03/15 02:40:14;;;;;;;23.93;12.00;;;4.90;81.60;;;;;;5074630;28;20040;-72
2022/03/15 02:42:40;;;;;;;24.70;10.93;;;4.90;81.70;;;;;;5090816;28;20430;-72
2022/03/15 02:45:06;;;;;;;20.73;11.23;;;5.00;81.60;;;;;;5111066;27;20032;-71
2022/03/15 02:47:32;;;;;;;22.17;10.68;;;5.00;81.50;;;;;;5084722;28;20044;-71
2022/03/15 02:49:58;;;;;;;25.90;11.00;;;5.00;81.50;;;;;;5090002;28;20048;-72
2022/03/15 02:52:25;;;;;;;21.05;11.07;;;5.00;81.60;;;;;;5052679;28;20329;-72
2022/03/15 02:54:51;;;;;;;23.23;11.00;;;5.00;81.50;;;;;;5108474;27;20047;-72
2022/03/15 02:57:20;;;;;;;20.77;11.07;;;5.00;81.40;;;;;;5060619;28;20048;-72
2022/03/15 02:59:46;;;;;;;19.80;10.88;;;5.00;81.40;;;;;;5110776;28;20109;-71
2022/03/15 03:02:13;;;;;;;24.67;11.33;;;5.10;81.40;;;;;;5111563;27;20033;-71
2022/03/15 03:04:39;;;;;;;23.13;11.80;;;5.10;81.50;;;;;;5107089;28;20067;-71
2022/03/15 03:07:06;;;;;;;22.30;10.87;;;5.20;81.40;;;;;;5079392;28;20563;-72
2022/03/15 03:09:32;;;;;;;22.65;11.77;;;5.20;81.40;;;;;;5102603;28;20039;-71
2022/03/15 03:11:58;;;;;;;25.90;12.47;;;5.20;81.40;;;;;;5086027;28;20048;-71
2022/03/15 03:14:24;;;;;;;22.63;11.20;;;5.20;81.30;;;;;;5119301;27;20035;-71
2022/03/15 03:16:50;;;;;;;22.00;10.85;;;5.20;81.20;;;;;;5113407;27;20043;-71
2022/03/15 03:19:16;;;;;;;23.42;10.98;;;5.30;81.20;;;;;;5104484;28;20048;-71
2022/03/15 03:21:42;;;;;;;21.95;11.38;;;5.30;81.20;;;;;;5102977;28;20367;-72
2022/03/15 03:24:09;;;;;;;17.97;10.90;;;5.30;81.20;;;;;;5113558;28;20048;-72
2022/03/15 03:26:38;;;;;;;21.38;11.27;;;5.30;81.10;;;;;;5106653;28;20071;-71
2022/03/15 03:29:11;;;;;;;23.25;12.25;;;5.30;81.20;;;;;;5087731;28;20040;-71
2022/03/15 03:31:38;;;;;;;25.83;11.43;;;5.30;81.00;;;;;;5101583;28;20071;-72
2022/03/15 03:34:05;;;;;;;22.02;11.13;;;5.40;81.10;;;;;;5088409;28;20058;-72
2022/03/15 03:36:32;;;;;;;26.77;11.60;;;5.40;81.10;;;;;;5106882;28;20051;-72
2022/03/15 03:38:58;;;;;;;19.95;10.63;;;5.40;81.10;;;;;;5118745;28;20092;-72
2022/03/15 03:41:24;;;;;;;22.17;10.60;;;5.40;81.00;;;;;;5097436;28;20035;-72
2022/03/15 03:43:50;;;;;;;27.93;11.67;;;5.40;81.00;;;;;;5110470;27;20035;-72
2022/03/15 03:46:17;;;;;;;19.52;11.18;;;5.40;81.00;;;;;;5090588;27;20043;-71
2022/03/15 03:48:44;;;;;;;23.48;11.18;;;5.40;81.00;;;;;;5122107;27;20068;-71
2022/03/15 03:51:11;;;;;;;22.27;11.65;;;5.40;80.90;;;;;;5114431;28;20043;-71
2022/03/15 03:53:37;;;;;;;20.50;11.52;;;5.40;80.90;;;;;;5098426;28;20055;-71
2022/03/15 03:56:03;;;;;;;24.87;12.37;;;5.30;80.90;;;;;;5130339;27;20043;-71
2022/03/15 03:58:28;;;;;;;24.33;12.53;;;5.30;80.90;;;;;;5132960;27;20050;-71
2022/03/15 04:00:54;;;;;;;23.47;13.37;;;5.30;81.00;;;;;;5080421;28;20050;-71
2022/03/15 04:03:20;;;;;;;24.83;13.50;;;5.30;81.00;;;;;;5082973;28;20039;-71
2022/03/15 04:05:46;;;;;;;26.73;12.50;;;5.30;81.10;;;;;;5094058;28;20055;-71
2022/03/15 04:08:14;;;;;;;23.73;13.07;;;5.30;80.90;;;;;;5127369;27;20051;-71
2022/03/15 04:10:40;;;;;;;22.42;13.00;;;5.30;81.00;;;;;;5099833;28;20044;-72
2022/03/15 04:13:07;;;;;;;28.10;14.00;;;5.30;81.10;;;;;;5082277;28;20055;-72
2022/03/15 04:15:34;;;;;;;23.65;13.70;;;5.30;81.00;;;;;;5080313;28;20047;-72
2022/03/15 04:18:00;;;;;;;24.27;13.80;;;5.30;81.00;;;;;;5128698;27;20097;-72
2022/03/15 04:20:26;;;;;;;25.47;13.53;;;5.30;81.00;;;;;;5099540;28;20543;-72
2022/03/15 04:22:52;;;;;;;23.58;14.23;;;5.20;80.90;;;;;;5115084;28;20106;-72
2022/03/15 04:25:18;;;;;;;21.10;13.00;;;5.20;81.00;;;;;;5090044;28;20471;-72
2022/03/15 04:27:44;;;;;;;23.93;13.67;;;5.10;81.00;;;;;;5115550;28;20118;-72
2022/03/15 04:30:10;;;;;;;21.45;14.45;;;5.10;80.90;;;;;;5081879;28;20282;-72
2022/03/15 04:32:36;;;;;;;25.75;13.52;;;5.10;81.00;;;;;;5089239;28;20051;-72
2022/03/15 04:35:03;;;;;;;24.90;13.97;;;5.00;80.90;;;;;;5114494;28;20043;-72
2022/03/15 04:37:28;;;;;;;25.30;14.65;;;5.00;80.90;;;;;;5111807;28;20038;-72
2022/03/15 04:39:55;;;;;;;24.10;14.63;;;4.90;81.00;;;;;;5114214;28;20039;-72
2022/03/15 04:42:22;;;;;;;25.73;14.23;;;4.90;81.00;;;;;;5083237;28;20031;-72
2022/03/15 04:44:47;;;;;;;23.75;14.48;;;4.90;81.10;;;;;;5081606;28;20088;-72
2022/03/15 04:47:13;;;;;;;20.47;13.60;;;4.80;81.00;;;;;;5095517;28;20039;-72
2022/03/15 04:49:39;;;;;;;24.27;13.47;;;4.80;81.10;;;;;;5080875;28;20046;-72
2022/03/15 04:52:05;;;;;;;27.27;13.90;;;4.70;81.00;;;;;;5110643;28;20469;-72
2022/03/15 04:54:30;;;;;;;22.30;13.90;;;4.70;81.00;;;;;;5093478;28;20270;-72
2022/03/15 04:56:56;;;;;;;26.77;15.57;;;4.60;81.10;;;;;;5081553;28;20285;-72
2022/03/15 04:59:22;;;;;;;24.77;15.40;;;4.60;81.20;;;;;;5098498;28;20483;-72
2022/03/15 05:01:48;;;;;;;26.37;14.90;;;4.60;81.40;;;;;;5094560;28;20487;-72
2022/03/15 05:04:14;;;;;;;23.75;14.20;;;4.60;81.50;;;;;;5096323;28;20040;-72
2022/03/15 05:06:40;;;;;;;27.80;16.23;;;4.60;81.40;;;;;;5079063;28;20472;-72
2022/03/15 05:09:06;;;;;;;29.30;15.70;;;4.60;81.40;;;;;;5075975;28;20047;-72
2022/03/15 05:11:32;;;;;;;30.30;17.20;;;4.60;81.50;;;;;;5104540;28;20040;-72
2022/03/15 05:13:58;;;;;;;31.65;17.23;;;4.60;81.50;;;;;;5075641;28;20048;-72
2022/03/15 05:16:24;;;;;;;28.07;17.50;;;4.60;81.50;;;;;;5089462;28;20535;-72
2022/03/15 05:18:53;;;;;;;30.40;16.00;;;4.50;81.50;;;;;;5078068;28;20040;-72
2022/03/15 05:21:21;;;;;;;27.38;16.17;;;4.50;81.60;;;;;;5093014;28;20047;-72
2022/03/15 05:23:47;;;;;;;34.42;19.40;;;4.50;81.60;;;;;;5093470;28;20075;-71
2022/03/15 05:26:15;;;;;;;28.02;16.08;;;4.50;81.60;;;;;;5126090;28;20082;-71
2022/03/15 05:28:41;;;;;;;31.52;17.92;;;4.40;81.60;;;;;;5056433;28;20503;-71
2022/03/15 05:31:08;;;;;;;28.10;17.00;;;4.40;81.70;;;;;;5104296;28;20036;-71
2022/03/15 05:33:34;;;;;;;29.83;16.52;;;4.40;81.60;;;;;;5125283;28;20048;-71
2022/03/15 05:36:01;;;;;;;33.28;18.92;;;4.40;81.60;;;;;;5109341;28;20621;-71
2022/03/15 05:38:27;;;;;;;30.67;17.92;;;4.40;81.70;;;;;;5109134;28;20105;-71
2022/03/15 05:40:53;;;;;;;32.85;18.33;;;4.40;81.70;;;;;;5109870;28;20563;-71
2022/03/15 05:43:20;;;;;;;39.58;18.63;;;4.40;81.80;;;;;;5094351;28;20559;-71
2022/03/15 05:45:46;;;;;;;35.45;18.98;;;4.40;81.70;;;;;;5107855;28;20047;-71
2022/03/15 05:48:12;;;;;;;29.08;17.95;;;4.30;81.70;;;;;;5126696;28;20039;-71
2022/03/15 05:50:37;;;;;;;27.17;18.17;;;4.40;81.90;;;;;;5111186;28;20491;-71
2022/03/15 05:53:04;;;;;;;28.63;17.50;;;4.40;81.80;;;;;;5096391;28;20127;-71
2022/03/15 05:55:34;;;;;;;35.30;19.67;;;4.40;82.00;;;;;;5091817;28;20503;-71
2022/03/15 05:58:01;;;;;;;36.53;19.77;;;4.40;81.90;;;;;;5064225;28;20090;-71
2022/03/15 06:00:27;;;;;;;27.25;17.05;;;4.40;81.80;;;;;;5112860;28;20047;-71
2022/03/15 06:02:53;;;;;;;27.92;16.35;;;4.30;81.90;;;;;;5083912;28;20040;-71
2022/03/15 06:05:19;;;;;;;28.60;17.67;;;4.40;81.90;;;;;;5112896;28;20119;-71
2022/03/15 06:07:49;;;;;;;29.43;16.37;;;4.40;82.00;;;;;;5089065;28;20075;-71
2022/03/15 06:10:17;;;;;;;25.70;16.77;;;4.40;82.10;;;;;;5132476;27;20699;-71
2022/03/15 06:12:43;;;;;;;27.80;16.67;;;4.50;82.20;;;;;;5073516;28;20480;-71
2022/03/15 06:15:10;;;;;;;29.07;16.90;;;4.50;82.20;;;;;;5114032;28;20032;-71
2022/03/15 06:17:56;;;;;;;30.35;16.98;;;4.60;82.20;;;;;;5089400;28;20273;-71
2022/03/15 06:20:23;;;;;;;32.00;18.33;;;4.60;82.30;;;;;;5101353;28;20491;-71
2022/03/15 06:22:49;;;;;;;26.65;16.25;;;4.70;82.20;;;;;;5131106;27;20079;-71
2022/03/15 06:25:15;;;;;;;31.98;15.55;;;4.70;82.20;;;;;;5102767;28;20510;-71
2022/03/15 06:27:42;;;;;;;30.35;16.23;;;4.80;82.40;;;;;;5100498;27;20457;-71
2022/03/15 06:30:09;;;;;;;31.98;17.08;;;4.80;82.30;;;;;;5102110;28;20172;-71
2022/03/15 06:32:34;;;;;;;30.60;17.60;;;4.80;82.30;;;;;;5086520;28;20729;-71
2022/03/15 06:35:07;;;;;;;31.27;17.00;;;4.90;82.10;;;;;;5072009;28;20036;-71
2022/03/15 06:37:36;;;;;;;29.30;17.00;;;4.90;82.20;;;;;;5101599;27;20043;-71
2022/03/15 06:40:03;;;;;;;38.40;17.10;;;5.00;82.10;;;;;;5068339;28;20039;-71
2022/03/15 06:42:29;;;;;;;33.42;16.80;;;5.00;82.00;;;;;;5083518;27;20041;-71
2022/03/15 06:44:54;;;;;;;28.63;16.67;;;5.00;82.00;;;;;;5095967;28;20480;-71
2022/03/15 06:47:20;;;;;;;32.30;16.80;;;5.10;81.90;;;;;;5111950;28;20130;-71
2022/03/15 06:49:46;;;;;;;30.17;16.30;;;5.10;81.80;;;;;;5110272;28;20280;-71
2022/03/15 06:52:13;;;;;;;30.40;17.67;;;5.20;81.90;;;;;;5110913;28;20097;-71
2022/03/15 06:54:38;;;;;;;32.05;18.00;;;5.20;81.90;;;;;;5065008;28;20082;-71
2022/03/15 06:57:04;;;;;;;26.27;17.07;;;5.20;81.90;;;;;;5093726;28;20067;-71
2022/03/15 06:59:30;;;;;;;32.17;17.37;;;5.30;81.80;;;;;;5103094;28;20044;-71
2022/03/15 07:01:56;;;;;;;32.10;17.93;;;5.30;81.80;;;;;;5084355;27;20100;-71
2022/03/15 07:04:21;;;;;;;28.50;16.50;;;5.30;81.70;;;;;;5096427;28;20526;-71
2022/03/15 07:06:48;;;;;;;25.33;16.58;;;5.40;81.70;;;;;;5099727;28;20056;-71
2022/03/15 07:09:14;;;;;;;29.93;17.80;;;5.40;81.70;;;;;;5082268;28;20503;-71
2022/03/15 07:11:40;;;;;;;29.63;16.70;;;5.40;81.60;;;;;;5110096;28;20035;-71
2022/03/15 07:14:06;;;;;;;28.70;15.97;;;5.40;81.70;;;;;;5098260;28;20462;-71
2022/03/15 07:16:31;;;;;;;35.63;17.05;;;5.50;81.60;;;;;;5092849;28;20043;-71
2022/03/15 07:18:57;;;;;;;27.70;16.43;;;5.50;81.60;;;;;;5127520;27;20046;-71
2022/03/15 07:21:23;;;;;;;34.67;17.37;;;5.50;81.50;;;;;;5127427;27;20063;-71
2022/03/15 07:23:49;;;;;;;31.50;17.00;;;5.60;81.50;;;;;;5108558;28;20281;-71
2022/03/15 07:26:15;;;;;;;28.13;16.27;;;5.60;81.50;;;;;;5092273;28;20415;-71
2022/03/15 07:28:40;;;;;;;29.90;17.30;;;5.70;81.50;;;;;;5065079;28;20051;-71
2022/03/15 07:31:06;;;;;;;32.90;17.57;;;5.70;81.50;;;;;;5095933;28;20047;-71
2022/03/15 07:33:32;;;;;;;31.27;17.17;;;5.70;81.30;;;;;;5081896;28;20131;-71
2022/03/15 07:36:03;;;;;;;28.90;15.98;;;5.70;81.40;;;;;;5095486;28;20032;-72
2022/03/15 07:38:28;;;;;;;28.80;17.52;;;5.80;81.20;;;;;;5061327;28;20461;-72
2022/03/15 07:40:58;;;;;;;28.47;17.10;;;5.90;81.30;;;;;;5100307;27;20079;-72
2022/03/15 07:43:23;;;;;;;30.33;16.80;;;5.90;81.20;;;;;;5084233;28;20031;-72
2022/03/15 07:45:50;;;;;;;28.53;16.33;;;6.00;81.20;;;;;;5094957;28;20157;-72
2022/03/15 07:48:16;;;;;;;30.17;16.80;;;6.10;81.10;;;;;;5102519;27;20038;-72
2022/03/15 07:50:42;;;;;;;24.55;15.90;;;6.20;81.10;;;;;;5084571;27;20050;-72
2022/03/15 07:53:08;;;;;;;32.15;16.48;;;6.30;81.00;;;;;;5133023;27;20047;-71
2022/03/15 07:55:34;;;;;;;26.23;15.17;;;6.40;80.90;;;;;;5068352;28;20058;-71
2022/03/15 07:58:00;;;;;;;25.20;15.25;;;6.50;80.80;;;;;;5067914;28;20079;-72
2022/03/15 08:00:26;;;;;;;25.15;14.48;;;6.60;80.70;;;;;;5111046;27;20040;-72
2022/03/15 08:02:52;;;;;;;28.70;15.20;;;6.70;80.60;;;;;;5093021;28;20044;-72
2022/03/15 08:05:19;;;;;;;33.87;16.23;;;6.80;80.70;;;;;;5093014;28;20585;-72
2022/03/15 08:07:45;;;;;;;30.63;15.88;;;6.90;80.60;;;;;;5116604;27;20043;-72
2022/03/15 08:10:10;;;;;;;26.63;16.17;;;7.00;80.50;;;;;;5089538;28;20112;-72
2022/03/15 08:12:37;;;;;;;30.57;16.93;;;7.10;80.20;;;;;;5075787;28;20563;-72
2022/03/15 08:15:05;;;;;;;28.75;16.00;;;7.10;80.20;;;;;;5109834;27;20096;-72
2022/03/15 08:17:30;;;;;;;29.83;16.38;;;7.10;79.90;;;;;;5069237;28;20333;-72
2022/03/15 08:19:57;;;;;;;29.67;16.23;;;7.20;79.90;;;;;;5085825;28;20048;-72
2022/03/15 08:22:24;;;;;;;29.88;17.27;;;7.30;79.80;;;;;;5066124;28;20048;-72
2022/03/15 08:24:50;;;;;;;33.50;18.48;;;7.30;79.50;;;;;;5090365;28;20089;-72
2022/03/15 08:27:15;;;;;;;38.40;18.60;;;7.30;79.30;;;;;;5073392;28;20071;-72
2022/03/15 08:29:41;;;;;;;32.73;19.10;;;7.30;79.40;;;;;;5106259;27;20047;-72
2022/03/15 08:32:07;;;;;;;32.07;19.63;;;7.40;79.30;;;;;;5091561;28;20061;-72
2022/03/15 08:34:34;;;;;;;35.47;21.07;;;7.40;79.20;;;;;;5095447;28;20036;-72
2022/03/15 08:37:00;;;;;;;32.15;21.15;;;7.40;79.20;;;;;;5107306;28;20285;-72
2022/03/15 08:39:26;;;;;;;37.10;20.57;;;7.50;79.20;;;;;;5083709;28;20044;-72
2022/03/15 08:41:52;;;;;;;38.90;21.67;;;7.60;79.00;;;;;;5077194;28;20113;-72
2022/03/15 08:44:19;;;;;;;33.97;21.50;;;7.70;78.80;;;;;;5088668;28;20088;-72
2022/03/15 08:46:52;;;;;;;37.20;22.38;;;7.70;78.90;;;;;;5087304;28;20486;-72
2022/03/15 08:49:19;;;;;;;36.15;21.33;;;7.80;78.80;;;;;;5087956;28;20075;-73
2022/03/15 08:51:46;;;;;;;38.20;21.77;;;7.80;78.40;;;;;;5122826;27;20547;-72
2022/03/15 08:54:12;;;;;;;38.22;22.45;;;7.90;78.50;;;;;;5124997;27;20039;-72
2022/03/15 08:56:41;;;;;;;33.80;21.17;;;7.90;78.30;;;;;;5105342;28;20686;-72
2022/03/15 08:59:08;;;;;;;33.83;22.27;;;8.00;78.30;;;;;;5084723;28;20122;-72
2022/03/15 09:01:33;;;;;;;35.92;21.65;;;8.00;78.30;;;;;;5068366;28;20515;-72
2022/03/15 09:03:59;;;;;;;37.07;22.23;;;8.10;78.20;;;;;;5101880;28;20070;-72
2022/03/15 09:06:25;;;;;;;39.13;23.33;;;8.10;78.00;;;;;;5096834;28;20479;-72
2022/03/15 09:08:51;;;;;;;37.90;22.23;;;8.10;78.00;;;;;;5100706;28;20103;-72
2022/03/15 09:11:16;;;;;;;34.27;22.00;;;8.10;78.00;;;;;;5095977;28;20071;-72
2022/03/15 09:13:42;;;;;;;36.53;22.73;;;8.20;78.10;;;;;;5093535;28;20566;-72
2022/03/15 09:16:08;;;;;;;35.80;22.53;;;8.40;78.10;;;;;;5098155;28;20406;-72
2022/03/15 09:18:34;;;;;;;34.47;22.43;;;8.50;78.10;;;;;;5076482;28;20036;-72
2022/03/15 09:20:59;;;;;;;38.03;22.60;;;8.60;78.10;;;;;;5096029;28;20480;-72
2022/03/15 09:23:25;;;;;;;34.53;22.00;;;8.80;77.60;;;;;;5090794;28;20040;-72
2022/03/15 09:25:51;;;;;;;34.70;22.43;;;8.90;77.30;;;;;;5104984;28;20846;-72
2022/03/15 09:28:17;;;;;;;35.80;21.73;;;9.00;76.60;;;;;;5099252;28;20050;-72
2022/03/15 09:30:46;;;;;;;40.30;23.08;;;9.10;76.70;;;;;;5088201;28;20039;-72
2022/03/15 09:33:12;;;;;;;32.63;22.05;;;9.20;76.10;;;;;;5093551;28;20082;-72
2022/03/15 09:35:40;;;;;;;40.43;23.13;;;9.30;76.00;;;;;;5075505;28;20078;-72
2022/03/15 09:38:06;;;;;;;38.55;23.02;;;9.40;76.00;;;;;;5064792;28;20036;-72
2022/03/15 09:40:33;;;;;;;38.42;23.20;;;9.40;75.30;;;;;;5089415;27;20047;-72
2022/03/15 09:43:02;;;;;;;34.58;22.67;;;9.50;75.50;;;;;;5130914;27;20387;-72
2022/03/15 09:45:33;;;;;;;37.85;23.55;;;9.60;75.20;;;;;;5090572;28;20047;-72
2022/03/15 09:48:02;;;;;;;32.88;22.80;;;9.80;75.30;;;;;;5073325;28;20036;-72
2022/03/15 09:50:28;;;;;;;33.67;22.05;;;9.90;75.00;;;;;;5121624;27;20487;-72
2022/03/15 09:52:56;;;;;;;35.00;22.97;;;10.00;74.30;;;;;;5076005;27;20039;-72
2022/03/15 09:55:22;;;;;;;38.95;23.30;;;10.10;74.10;;;;;;5092115;27;20488;-72
2022/03/15 09:57:48;;;;;;;39.15;23.08;;;10.20;73.60;;;;;;5073683;28;20110;-72
2022/03/15 10:00:16;;;;;;;35.47;23.50;;;10.20;73.20;;;;;;5098519;27;20071;-72
2022/03/15 10:02:46;;;;;;;36.75;23.63;;;10.10;73.10;;;;;;5070145;28;20050;-72
2022/03/15 10:05:13;;;;;;;34.33;22.38;;;10.10;73.10;;;;;;5081268;28;20449;-72
2022/03/15 10:07:40;;;;;;;35.35;23.08;;;10.00;72.70;;;;;;5076655;28;20056;-72
2022/03/15 10:10:09;;;;;;;39.85;23.83;;;10.00;72.90;;;;;;5108117;28;20078;-73
2022/03/15 10:12:35;;;;;;;33.00;22.35;;;9.90;73.20;;;;;;5078026;28;20035;-73
2022/03/15 10:15:22;;;;;;;42.03;24.20;;;9.90;73.20;;;;;;5107088;28;20089;-72
2022/03/15 10:17:56;;;;;;;32.67;22.08;;;9.90;73.30;;;;;;5087369;28;20043;-72
2022/03/15 10:20:31;;;;;;;29.33;21.40;;;9.90;73.40;;;;;;5123625;27;20081;-72
2022/03/15 10:23:02;;;;;;;34.05;23.13;;;10.00;73.00;;;;;;5098833;28;20122;-72
2022/03/15 10:25:31;;;;;;;35.95;23.58;;;10.00;73.00;;;;;;5099441;28;20024;-72
2022/03/15 10:28:00;;;;;;;34.28;23.17;;;10.00;73.10;;;;;;5127323;27;20040;-72
2022/03/15 10:30:27;;;;;;;33.40;22.02;;;10.10;73.40;;;;;;5097949;28;20100;-72
2022/03/15 10:32:54;;;;;;;32.00;22.52;;;10.10;73.10;;;;;;5093987;28;20036;-72
2022/03/15 10:35:26;;;;;;;32.15;23.23;;;10.10;73.30;;;;;;5096318;28;20047;-72
2022/03/15 10:37:53;;;;;;;32.13;21.67;;;10.30;73.50;;;;;;5125765;27;20118;-72
2022/03/15 10:40:31;;;;;;;32.53;22.17;;;10.40;73.40;;;;;;5101880;28;20312;-72
2022/03/15 10:43:06;;;;;;;32.13;23.25;;;10.60;73.40;;;;;;5125963;27;20282;-72
2022/03/15 10:45:34;;;;;;;30.67;20.90;;;10.70;73.20;;;;;;5096706;28;20140;-73
2022/03/15 10:48:00;;;;;;;35.23;21.60;;;10.70;71.70;;;;;;5077426;28;20084;-73
2022/03/15 10:50:29;;;;;;;29.37;20.73;;;10.70;71.80;;;;;;5107123;28;20281;-73
2022/03/15 10:52:55;;;;;;;30.73;21.20;;;10.60;71.90;;;;;;5100606;28;20278;-73
2022/03/15 10:55:28;;;;;;;31.63;20.50;;;10.40;72.10;;;;;;5115881;27;20840;-73
2022/03/15 10:57:59;;;;;;;32.63;21.70;;;10.30;72.50;;;;;;5084173;28;20031;-72
2022/03/15 11:00:30;;;;;;;29.97;20.17;;;10.30;73.00;;;;;;5132361;27;20285;-72
2022/03/15 11:02:57;;;;;;;31.27;20.40;;;10.30;73.50;;;;;;5099036;28;20288;-72
2022/03/15 11:05:29;;;;;;;30.40;21.03;;;10.30;73.40;;;;;;5083560;28;20344;-72
2022/03/15 11:07:56;;;;;;;29.87;19.97;;;10.30;73.70;;;;;;5088906;28;20285;-72
2022/03/15 11:10:22;;;;;;;31.63;19.17;;;10.40;73.80;;;;;;5112750;28;20772;-72
2022/03/15 11:12:57;;;;;;;29.77;18.70;;;10.40;73.70;;;;;;5130313;27;20284;-72
2022/03/15 11:15:34;;;;;;;29.08;18.08;;;10.40;73.90;;;;;;5127848;27;20304;-72
2022/03/15 11:18:05;;;;;;;23.83;16.27;;;10.40;74.20;;;;;;5105785;28;20123;-73
2022/03/15 11:20:37;;;;;;;25.97;16.13;;;10.50;74.50;;;;;;5096728;28;20296;-73
2022/03/15 11:23:09;;;;;;;21.93;15.63;;;10.50;74.70;;;;;;5107157;28;20423;-73
2022/03/15 11:25:39;;;;;;;28.77;15.70;;;10.60;74.60;;;;;;5078355;28;20281;-73
2022/03/15 11:28:12;;;;;;;25.90;16.20;;;10.70;74.30;;;;;;5129874;27;20285;-73
2022/03/15 11:30:39;;;;;;;25.33;15.07;;;10.80;74.30;;;;;;5085009;28;20281;-72
2022/03/15 11:33:07;;;;;;;21.67;14.30;;;10.90;74.60;;;;;;5086506;28;20335;-72
2022/03/15 11:35:34;;;;;;;20.27;13.53;;;11.10;74.50;;;;;;5090544;27;20434;-72
2022/03/15 11:38:02;;;;;;;19.60;12.67;;;11.20;74.60;;;;;;5095079;27;20297;-72
2022/03/15 11:40:29;;;;;;;22.30;13.30;;;11.40;74.30;;;;;;5095547;28;20494;-72
2022/03/15 11:43:06;;;;;;;20.90;14.73;;;11.50;74.40;;;;;;5088678;28;20281;-74
2022/03/15 11:45:38;;;;;;;24.53;14.50;;;11.70;74.80;;;;;;5105369;28;20289;-73
2022/03/15 11:48:11;;;;;;;26.40;15.40;;;11.90;74.50;;;;;;5073949;28;20274;-73
2022/03/15 11:51:02;;;;;;;21.63;14.10;;;12.10;73.80;;;;;;5098768;27;20327;-73
2022/03/15 11:54:08;;;;;;;18.80;11.73;;;12.30;72.80;;;;;;5121918;27;20342;-73
2022/03/15 11:57:01;;;;;;;18.20;10.93;;;12.40;72.40;;;;;;5007967;28;20287;-73
2022/03/15 11:59:44;;;;;;;13.63;8.77;;;12.70;72.00;;;;;;5086042;28;20055;-73
2022/03/15 12:02:10;;;;;;;18.00;7.50;;;12.80;71.20;;;;;;5090935;28;20333;-73
2022/03/15 12:04:44;;;;;;;10.33;3.63;;;12.90;70.60;;;;;;5123701;27;20282;-73
2022/03/15 12:07:11;;;;;;;9.63;4.40;;;13.00;69.10;;;;;;5104549;28;20138;-73
2022/03/15 12:09:47;;;;;;;7.53;3.87;;;13.00;68.10;;;;;;5128292;27;20308;-73
2022/03/15 12:12:12;;;;;;;;;;;13.10;67.70;;;;;;5119114;27;20284;-72
2022/03/15 12:14:44;;;;;;;10.57;6.53;;;13.10;67.30;;;;;;5090368;28;20324;-72
2022/03/15 12:17:12;;;;;;;11.27;7.20;;;13.10;67.10;;;;;;5081770;28;20043;-72
2022/03/15 12:19:48;;;;;;;10.47;5.57;;;13.10;67.20;;;;;;5087046;28;20868;-72
2022/03/15 12:22:37;;;;;;;9.33;6.33;;;13.20;66.90;;;;;;5073514;28;20284;-72
2022/03/15 12:25:03;;;;;;;8.40;5.47;;;13.40;66.50;;;;;;5104145;28;20644;-72
2022/03/15 12:27:29;;;;;;;9.73;4.97;;;13.50;66.20;;;;;;5084571;28;20322;-72
2022/03/15 12:29:58;;;;;;;6.73;3.80;;;13.50;66.20;;;;;;5077881;28;20322;-73
2022/03/15 12:32:25;;;;;;;7.20;3.70;;;13.60;65.30;;;;;;5094820;28;20127;-73
2022/03/15 12:34:57;;;;;;;6.57;3.30;;;13.70;65.60;;;;;;5094073;27;20292;-75
2022/03/15 12:37:37;;;;;;;12.10;5.07;;;13.80;63.90;;;;;;5085057;28;20365;-74